Time;durP1;ratioP1;P1;durP2;ratioP2;P2;SDS_P1;SDS_P2;PMS_P1;PMS_P2;Temp;Humidity;BMP_temperature;BMP_pressure;BME280_temperature;BME280_humidity;BME280_pressure;Samples;Min_cycle;Max_cycle;Signal;HPM_P1;HPM_P2
2023/08/03 00:00:58;;;;;;;;;;;;;;;;;;2198984;59;2157;-24
2023/08/03 00:03:28;;;;;;;;;;;;;;;;;;2199888;59;2231;-24
2023/08/03 00:05:58;;;;;;;;;;;;;;;;;;2199280;67;3218;-24
2023/08/03 00:08:29;;;;;;;;;;;;;;;;;;2201344;67;2017;-24
2023/08/03 00:11:00;;;;;;;;;;;;;;;;;;2199976;67;1678;-24
2023/08/03 00:13:30;;;;;;;;;;;;;;;;;;2200846;59;2452;-23
2023/08/03 00:16:01;;;;;;;;;;;;;;;;;;2200005;67;1894;-23
2023/08/03 00:18:31;;;;;;;;;;;;;;;;;;2198615;66;2514;-23
2023/08/03 00:21:01;;;;;;;;;;;;;;;;;;2198947;59;2430;-23
2023/08/03 00:23:31;;;;;;;;;;;;;;;;;;2199140;67;2040;-24
2023/08/03 00:26:02;;;;;;;;;;;;;;;;;;2199490;59;3044;-24
2023/08/03 00:28:32;;;;;;;;;;;;;;;;;;2199627;66;1864;-23
2023/08/03 00:31:02;;;;;;;;;;;;;;;;;;2197942;59;2508;-24
2023/08/03 00:33:32;;;;;;;;;;;;;;;;;;2199341;59;2916;-23
2023/08/03 00:36:03;;;;;;;;;;;;;;;;;;2198537;66;1729;-23
2023/08/03 00:38:33;;;;;;;;;;;;;;;;;;2199675;67;2223;-23
2023/08/03 00:41:03;;;;;;;;;;;;;;;;;;2199778;67;2037;-23
2023/08/03 00:43:33;;;;;;;;;;;;;;;;;;2200134;67;1904;-23
2023/08/03 00:46:03;;;;;;;;;;;;;;;;;;2200631;59;2278;-23
2023/08/03 00:48:34;;;;;;;;;;;;;;;;;;2197168;59;2428;-25
2023/08/03 00:51:04;;;;;;;;;;;;;;;;;;2199980;59;1608;-23
2023/08/03 00:53:34;;;;;;;;;;;;;;;;;;2199858;59;2643;-23
2023/08/03 00:56:04;;;;;;;;;;;;;;;;;;2199543;59;2120;-23
2023/08/03 00:58:35;;;;;;;;;;;;;;;;;;2199082;66;1768;-23
2023/08/03 01:01:05;;;;;;;;;;;;;;;;;;2200022;59;2877;-23
2023/08/03 01:03:35;;;;;;;;;;;;;;;;;;2200102;59;1735;-23
2023/08/03 01:06:09;;;;;;;;;;;;;;;;;;2198742;67;1804;-23
2023/08/03 01:08:40;;;;;;;;;;;;;;;;;;2200987;67;1773;-23
2023/08/03 01:11:10;;;;;;;;;;;;;;;;;;2199112;59;2423;-23
2023/08/03 01:13:40;;;;;;;;;;;;;;;;;;2200291;59;1933;-23
2023/08/03 01:16:11;;;;;;;;;;;;;;;;;;2199427;66;1884;-23
2023/08/03 01:18:42;;;;;;;;;;;;;;;;;;2199929;59;1952;-23
2023/08/03 01:21:14;;;;;;;;;;;;;;;;;;2199879;59;2086;-23
2023/08/03 01:23:44;;;;;;;;;;;;;;;;;;2200116;67;1935;-23
2023/08/03 01:26:15;;;;;;;;;;;;;;;;;;2199879;59;2102;-23
2023/08/03 01:28:45;;;;;;;;;;;;;;;;;;2200290;67;1985;-23
2023/08/03 01:31:18;;;;;;;;;;;;;;;;;;2198679;66;2019;-23
2023/08/03 01:33:48;;;;;;;;;;;;;;;;;;2198577;59;2509;-23
2023/08/03 01:36:19;;;;;;;;;;;;;;;;;;2198821;67;1906;-23
2023/08/03 01:39:05;;;;;;;;;;;;;;;;;;2199291;59;2520;-23
2023/08/03 01:41:36;;;;;;;;;;;;;;;;;;2198843;67;1774;-23
2023/08/03 01:44:12;;;;;;;;;;;;;;;;;;2198663;61;1970;-23
2023/08/03 01:46:42;;;;;;;;;;;;;;;;;;2199421;59;1656;-23
2023/08/03 01:49:12;;;;;;;;;;;;;;;;;;2198959;59;2557;-23
2023/08/03 01:51:43;;;;;;;;;;;;;;;;;;2199943;59;2369;-23
2023/08/03 01:54:13;;;;;;;;;;;;;;;;;;2199494;59;2021;-23
2023/08/03 01:56:44;;;;;;;;;;;;;;;;;;2200433;59;1617;-23
2023/08/03 01:59:14;;;;;;;;;;;;;;;;;;2199136;67;1834;-23
2023/08/03 02:01:44;;;;;;;;;;;;;;;;;;2200372;59;2459;-23
2023/08/03 02:04:15;;;;;;;;;;;;;;;;;;2199846;59;2750;-23
2023/08/03 02:06:45;;;;;;;;;;;;;;;;;;2200254;67;1749;-23
2023/08/03 02:09:16;;;;;;;;;;;;;;;;;;2199295;67;1899;-23
2023/08/03 02:11:46;;;;;;;;;;;;;;;;;;2203390;59;2226;-23
2023/08/03 02:14:16;;;;;;;;;;;;;;;;;;2202120;66;1994;-23
2023/08/03 02:16:46;;;;;;;;;;;;;;;;;;2200251;67;2286;-23
2023/08/03 02:19:16;;;;;;;;;;;;;;;;;;2198656;59;1907;-23
2023/08/03 02:21:47;;;;;;;;;;;;;;;;;;2200366;67;1748;-23
2023/08/03 02:24:17;;;;;;;;;;;;;;;;;;2199861;67;1822;-23
2023/08/03 02:26:47;;;;;;;;;;;;;;;;;;2199898;67;1839;-22
2023/08/03 02:29:17;;;;;;;;;;;;;;;;;;2199255;67;2202;-22
2023/08/03 02:31:47;;;;;;;;;;;;;;;;;;2200966;59;2023;-23
2023/08/03 02:34:18;;;;;;;;;;;;;;;;;;2197911;59;2327;-23
2023/08/03 02:36:48;;;;;;;;;;;;;;;;;;2198897;67;1892;-23
2023/08/03 02:39:18;;;;;;;;;;;;;;;;;;2198855;59;1770;-23
2023/08/03 02:41:48;;;;;;;;;;;;;;;;;;2200041;67;1779;-22
2023/08/03 02:44:18;;;;;;;;;;;;;;;;;;2199393;59;1859;-23
2023/08/03 02:46:49;;;;;;;;;;;;;;;;;;2200717;67;2524;-23
2023/08/03 02:49:22;;;;;;;;;;;;;;;;;;2199585;67;2405;-22
2023/08/03 02:51:52;;;;;;;;;;;;;;;;;;2201396;59;1626;-23
2023/08/03 02:54:22;;;;;;;;;;;;;;;;;;2199748;59;2511;-23
2023/08/03 02:56:53;;;;;;;;;;;;;;;;;;2201078;59;2159;-23
2023/08/03 02:59:23;;;;;;;;;;;;;;;;;;2199484;66;2161;-23
2023/08/03 03:01:53;;;;;;;;;;;;;;;;;;2199812;59;1751;-23
2023/08/03 03:04:23;;;;;;;;;;;;;;;;;;2199854;59;1732;-23
2023/08/03 03:06:53;;;;;;;;;;;;;;;;;;2201985;67;1720;-23
2023/08/03 03:09:24;;;;;;;;;;;;;;;;;;2201811;67;1885;-23
2023/08/03 03:11:55;;;;;;;;;;;;;;;;;;2200144;59;2786;-23
2023/08/03 03:14:26;;;;;;;;;;;;;;;;;;2202022;66;1918;-23
2023/08/03 03:16:56;;;;;;;;;;;;;;;;;;2200082;67;1868;-23
2023/08/03 03:19:29;;;;;;;;;;;;;;;;;;2200134;59;3137;-22
2023/08/03 03:21:59;;;;;;;;;;;;;;;;;;2199928;66;2680;-23
2023/08/03 03:24:29;;;;;;;;;;;;;;;;;;2199695;66;1903;-23
2023/08/03 03:27:00;;;;;;;;;;;;;;;;;;2199517;59;1765;-23
2023/08/03 03:29:30;;;;;;;;;;;;;;;;;;2200419;67;2910;-23
2023/08/03 03:32:04;;;;;;;;;;;;;;;;;;2199630;59;2206;-23
2023/08/03 03:34:37;;;;;;;;;;;;;;;;;;2198852;59;2704;-23
2023/08/03 03:37:07;;;;;;;;;;;;;;;;;;2199375;64;2358;-23
2023/08/03 03:39:37;;;;;;;;;;;;;;;;;;2200688;67;1994;-22
2023/08/03 03:42:07;;;;;;;;;;;;;;;;;;2199321;67;1749;-22
2023/08/03 03:44:38;;;;;;;;;;;;;;;;;;2202156;59;1864;-23
2023/08/03 03:47:08;;;;;;;;;;;;;;;;;;2199363;67;1802;-23
2023/08/03 03:49:38;;;;;;;;;;;;;;;;;;2199777;59;2073;-23
2023/08/03 03:52:08;;;;;;;;;;;;;;;;;;2198927;59;1756;-23
2023/08/03 03:54:39;;;;;;;;;;;;;;;;;;2199110;59;2581;-22
2023/08/03 03:57:09;;;;;;;;;;;;;;;;;;2199268;59;1978;-23
2023/08/03 03:59:39;;;;;;;;;;;;;;;;;;2200940;66;2641;-22
2023/08/03 04:02:09;;;;;;;;;;;;;;;;;;2199707;59;2029;-22
2023/08/03 04:04:43;;;;;;;;;;;;;;;;;;2200754;67;2372;-22
2023/08/03 04:07:13;;;;;;;;;;;;;;;;;;2199835;66;2557;-22
2023/08/03 04:09:43;;;;;;;;;;;;;;;;;;2200383;67;1745;-22
2023/08/03 04:12:16;;;;;;;;;;;;;;;;;;2198738;59;1995;-22
2023/08/03 04:14:46;;;;;;;;;;;;;;;;;;2199868;67;2003;-23
2023/08/03 04:17:20;;;;;;;;;;;;;;;;;;2198786;67;2443;-23
2023/08/03 04:19:50;;;;;;;;;;;;;;;;;;2199371;59;1730;-23
2023/08/03 04:22:20;;;;;;;;;;;;;;;;;;2199144;67;2286;-23
2023/08/03 04:24:50;;;;;;;;;;;;;;;;;;2199966;67;2021;-23
2023/08/03 04:27:20;;;;;;;;;;;;;;;;;;2198894;59;2278;-23
2023/08/03 04:29:51;;;;;;;;;;;;;;;;;;2199915;67;1811;-23
2023/08/03 04:32:21;;;;;;;;;;;;;;;;;;2196738;59;2024;-23
2023/08/03 04:34:51;;;;;;;;;;;;;;;;;;2199438;59;2138;-23
2023/08/03 04:37:22;;;;;;;;;;;;;;;;;;2197448;67;2212;-23
2023/08/03 04:39:52;;;;;;;;;;;;;;;;;;2200244;66;2584;-23
2023/08/03 04:42:22;;;;;;;;;;;;;;;;;;2199448;67;2312;-23
2023/08/03 04:44:53;;;;;;;;;;;;;;;;;;2200692;59;1989;-23
2023/08/03 04:47:23;;;;;;;;;;;;;;;;;;2199644;66;3017;-23
2023/08/03 04:49:53;;;;;;;;;;;;;;;;;;2200882;59;2521;-23
2023/08/03 04:52:24;;;;;;;;;;;;;;;;;;2199623;59;2560;-23
2023/08/03 04:54:54;;;;;;;;;;;;;;;;;;2200849;59;2143;-23
2023/08/03 04:57:24;;;;;;;;;;;;;;;;;;2200670;59;2318;-23
2023/08/03 04:59:56;;;;;;;;;;;;;;;;;;2200171;59;2517;-23
2023/08/03 05:02:26;;;;;;;;;;;;;;;;;;2200031;67;2471;-23
2023/08/03 05:04:57;;;;;;;;;;;;;;;;;;2199275;58;1485;-23
2023/08/03 05:07:27;;;;;;;;;;;;;;;;;;2199865;67;2018;-23
2023/08/03 05:09:58;;;;;;;;;;;;;;;;;;2199883;67;1739;-23
2023/08/03 05:12:28;;;;;;;;;;;;;;;;;;2200969;59;1810;-23
2023/08/03 05:14:58;;;;;;;;;;;;;;;;;;2199742;66;2607;-23
2023/08/03 05:17:29;;;;;;;;;;;;;;;;;;2199489;67;2286;-23
2023/08/03 05:19:59;;;;;;;;;;;;;;;;;;2199978;59;2416;-23
2023/08/03 05:22:29;;;;;;;;;;;;;;;;;;2199729;66;2384;-23
2023/08/03 05:25:03;;;;;;;;;;;;;;;;;;2199592;67;2248;-23
2023/08/03 05:27:33;;;;;;;;;;;;;;;;;;2196947;59;1866;-23
2023/08/03 05:30:05;;;;;;;;;;;;;;;;;;2201170;67;2626;-23
2023/08/03 05:32:35;;;;;;;;;;;;;;;;;;2199934;59;1823;-23
2023/08/03 05:35:06;;;;;;;;;;;;;;;;;;2200193;59;3010;-23
2023/08/03 05:37:36;;;;;;;;;;;;;;;;;;2198228;66;2289;-23
2023/08/03 05:40:07;;;;;;;;;;;;;;;;;;2199499;67;1833;-23
2023/08/03 05:42:38;;;;;;;;;;;;;;;;;;2201033;59;2683;-23
2023/08/03 05:45:16;;;;;;;;;;;;;;;;;;2200760;59;1819;-23
2023/08/03 05:47:46;;;;;;;;;;;;;;;;;;2198977;66;1696;-23
2023/08/03 05:50:16;;;;;;;;;;;;;;;;;;2198844;59;2420;-23
2023/08/03 05:52:47;;;;;;;;;;;;;;;;;;2198867;59;1944;-23
2023/08/03 05:55:17;;;;;;;;;;;;;;;;;;2197702;66;2629;-23
2023/08/03 05:57:47;;;;;;;;;;;;;;;;;;2200684;67;2836;-23
2023/08/03 06:00:24;;;;;;;;;;;;;;;;;;2199012;59;1823;-23
2023/08/03 06:02:58;;;;;;;;;;;;;;;;;;2197726;66;1792;-23
2023/08/03 06:05:44;;;;;;;;;;;;;;;;;;2200519;67;2046;-23
2023/08/03 06:08:16;;;;;;;;;;;;;;;;;;2199113;67;2249;-23
2023/08/03 06:10:51;;;;;;;;;;;;;;;;;;2199869;59;2477;-23
2023/08/03 06:13:34;;;;;;;;;;;;;;;;;;2199301;67;1989;-23
2023/08/03 06:16:09;;;;;;;;;;;;;;;;;;2200347;66;1740;-23
2023/08/03 06:18:48;;;;;;;;;;;;;;;;;;2198205;66;2178;-23
2023/08/03 06:21:19;;;;;;;;;;;;;;;;;;2205477;59;2364;-23
2023/08/03 06:23:51;;;;;;;;;;;;;;;;;;2201413;67;1772;-23
2023/08/03 06:26:21;;;;;;;;;;;;;;;;;;2201185;59;1897;-23
2023/08/03 06:28:53;;;;;;;;;;;;;;;;;;2200923;67;2573;-23
2023/08/03 06:31:29;;;;;;;;;;;;;;;;;;2199875;66;2437;-23
2023/08/03 06:34:00;;;;;;;;;;;;;;;;;;2200840;59;1954;-23
2023/08/03 06:36:31;;;;;;;;;;;;;;;;;;2199975;59;2553;-24
2023/08/03 06:39:01;;;;;;;;;;;;;;;;;;2196095;67;2281;-23
2023/08/03 06:41:31;;;;;;;;;;;;;;;;;;2200976;67;1719;-23
2023/08/03 06:44:02;;;;;;;;;;;;;;;;;;2200162;66;2634;-23
2023/08/03 06:46:32;;;;;;;;;;;;;;;;;;2200465;59;2186;-23
2023/08/03 06:49:02;;;;;;;;;;;;;;;;;;2201941;66;2920;-23
2023/08/03 06:51:34;;;;;;;;;;;;;;;;;;2202153;59;1869;-23
2023/08/03 06:54:05;;;;;;;;;;;;;;;;;;2201344;59;1935;-23
2023/08/03 06:56:37;;;;;;;;;;;;;;;;;;2200169;59;1911;-23
2023/08/03 06:59:07;;;;;;;;;;;;;;;;;;2200655;67;1946;-23
2023/08/03 07:01:38;;;;;;;;;;;;;;;;;;2201179;59;2208;-23
2023/08/03 07:04:08;;;;;;;;;;;;;;;;;;2200142;59;3332;-23
2023/08/03 07:06:38;;;;;;;;;;;;;;;;;;2201249;66;3094;-23
2023/08/03 07:09:08;;;;;;;;;;;;;;;;;;2200166;67;1797;-23
2023/08/03 07:11:39;;;;;;;;;;;;;;;;;;2201497;59;2599;-23
2023/08/03 07:14:09;;;;;;;;;;;;;;;;;;2200250;59;1957;-24
2023/08/03 07:16:41;;;;;;;;;;;;;;;;;;2203633;66;1916;-24
2023/08/03 07:19:13;;;;;;;;;;;;;;;;;;2200466;66;2083;-24
2023/08/03 07:21:43;;;;;;;;;;;;;;;;;;2200200;67;2578;-24
2023/08/03 07:24:13;;;;;;;;;;;;;;;;;;2199221;66;1913;-24
2023/08/03 07:26:44;;;;;;;;;;;;;;;;;;2200686;59;2566;-24
2023/08/03 07:29:14;;;;;;;;;;;;;;;;;;2199553;66;1519;-24
2023/08/03 07:31:44;;;;;;;;;;;;;;;;;;2200401;59;1292;-24
2023/08/03 07:34:14;;;;;;;;;;;;;;;;;;2199238;60;1937;-24
2023/08/03 07:36:46;;;;;;;;;;;;;;;;;;2199861;59;1663;-24
2023/08/03 07:39:16;;;;;;;;;;;;;;;;;;2198199;59;2361;-24
2023/08/03 07:41:46;;;;;;;;;;;;;;;;;;2199684;67;1780;-24
2023/08/03 07:44:17;;;;;;;;;;;;;;;;;;2199605;59;2318;-24
2023/08/03 07:46:48;;;;;;;;;;;;;;;;;;2201074;66;3270;-24
2023/08/03 07:49:19;;;;;;;;;;;;;;;;;;2199210;67;2131;-24
2023/08/03 07:51:49;;;;;;;;;;;;;;;;;;2199567;59;2405;-24
2023/08/03 07:54:20;;;;;;;;;;;;;;;;;;2198804;59;2797;-24
2023/08/03 07:56:50;;;;;;;;;;;;;;;;;;2199110;59;2483;-24
2023/08/03 07:59:20;;;;;;;;;;;;;;;;;;2199136;66;1780;-24
2023/08/03 08:01:51;;;;;;;;;;;;;;;;;;2199860;59;2853;-24
2023/08/03 08:04:21;;;;;;;;;;;;;;;;;;2198868;59;2476;-24
2023/08/03 08:06:51;;;;;;;;;;;;;;;;;;2199695;66;2830;-24
2023/08/03 08:09:22;;;;;;;;;;;;;;;;;;2196643;67;1960;-24
2023/08/03 08:11:52;;;;;;;;;;;;;;;;;;2199926;58;2943;-24
2023/08/03 08:14:22;;;;;;;;;;;;;;;;;;2200115;66;1938;-24
2023/08/03 08:16:53;;;;;;;;;;;;;;;;;;2199298;67;2247;-24
2023/08/03 08:19:24;;;;;;;;;;;;;;;;;;2200447;59;3323;-24
2023/08/03 08:21:54;;;;;;;;;;;;;;;;;;2196745;59;4051;-24
2023/08/03 08:24:24;;;;;;;;;;;;;;;;;;2200265;67;2534;-24
2023/08/03 08:26:55;;;;;;;;;;;;;;;;;;2200393;59;1700;-24
2023/08/03 08:29:25;;;;;;;;;;;;;;;;;;2200293;67;2524;-24
2023/08/03 08:31:55;;;;;;;;;;;;;;;;;;2200555;59;2577;-24
2023/08/03 08:34:26;;;;;;;;;;;;;;;;;;2199040;67;1976;-24
2023/08/03 08:36:57;;;;;;;;;;;;;;;;;;2199626;59;2618;-24
2023/08/03 08:39:29;;;;;;;;;;;;;;;;;;2198283;66;2878;-24
2023/08/03 08:42:08;;;;;;;;;;;;;;;;;;2199755;67;2628;-24
2023/08/03 08:44:39;;;;;;;;;;;;;;;;;;2199206;59;3038;-24
2023/08/03 08:47:13;;;;;;;;;;;;;;;;;;2199657;67;2603;-24
2023/08/03 08:49:43;;;;;;;;;;;;;;;;;;2199496;59;2042;-24
2023/08/03 08:52:15;;;;;;;;;;;;;;;;;;2199877;59;2245;-24
2023/08/03 08:54:45;;;;;;;;;;;;;;;;;;2196977;59;1953;-24
2023/08/03 08:57:15;;;;;;;;;;;;;;;;;;2200354;59;1781;-24
2023/08/03 08:59:59;;;;;;;;;;;;;;;;;;2199050;59;2046;-24
2023/08/03 09:02:30;;;;;;;;;;;;;;;;;;2199457;67;2042;-24
2023/08/03 09:05:13;;;;;;;;;;;;;;;;;;2199326;59;1778;-24
2023/08/03 09:07:44;;;;;;;;;;;;;;;;;;2199394;59;2398;-24
2023/08/03 09:10:14;;;;;;;;;;;;;;;;;;2199784;58;2799;-24
2023/08/03 09:12:44;;;;;;;;;;;;;;;;;;2200096;59;2492;-24
2023/08/03 09:15:15;;;;;;;;;;;;;;;;;;2200218;66;2504;-25
2023/08/03 09:17:47;;;;;;;;;;;;;;;;;;2198542;66;1852;-22
2023/08/03 09:20:26;;;;;;;;;;;;;;;;;;2199598;59;1812;-22
2023/08/03 09:22:56;;;;;;;;;;;;;;;;;;2198815;67;2317;-22
2023/08/03 09:25:27;;;;;;;;;;;;;;;;;;2201121;66;1758;-22
2023/08/03 09:27:57;;;;;;;;;;;;;;;;;;2201033;59;1730;-22
2023/08/03 09:30:27;;;;;;;;;;;;;;;;;;2200484;59;2655;-22
2023/08/03 09:32:58;;;;;;;;;;;;;;;;;;2200159;59;1969;-24
2023/08/03 09:35:28;;;;;;;;;;;;;;;;;;2199880;60;2580;-24
2023/08/03 09:37:59;;;;;;;;;;;;;;;;;;2200627;67;1754;-22
2023/08/03 09:40:43;;;;;;;;;;;;;;;;;;2198608;59;2485;-22
2023/08/03 09:43:15;;;;;;;;;;;;;;;;;;2199130;67;3443;-22
2023/08/03 09:45:45;;;;;;;;;;;;;;;;;;2199607;59;2777;-22
2023/08/03 09:48:15;;;;;;;;;;;;;;;;;;2198215;67;2331;-22
2023/08/03 09:50:50;;;;;;;;;;;;;;;;;;2199621;59;1773;-22
2023/08/03 09:53:21;;;;;;;;;;;;;;;;;;2199260;59;1924;-22
2023/08/03 09:56:00;;;;;;;;;;;;;;;;;;2199036;60;2108;-22
2023/08/03 09:58:36;;;;;;;;;;;;;;;;;;2199435;59;1855;-22
2023/08/03 10:01:11;;;;;;;;;;;;;;;;;;2199155;59;2156;-22
2023/08/03 10:03:44;;;;;;;;;;;;;;;;;;2214224;66;1830;-22
2023/08/03 10:06:16;;;;;;;;;;;;;;;;;;2198867;67;3068;-22
2023/08/03 10:08:52;;;;;;;;;;;;;;;;;;2196007;59;2237;-22
2023/08/03 10:11:27;;;;;;;;;;;;;;;;;;2200075;67;2020;-22
2023/08/03 10:14:00;;;;;;;;;;;;;;;;;;2199450;59;3590;-22
2023/08/03 10:16:33;;;;;;;;;;;;;;;;;;2199998;67;1789;-22
2023/08/03 10:19:06;;;;;;;;;;;;;;;;;;2199144;59;2249;-22
2023/08/03 10:21:37;;;;;;;;;;;;;;;;;;2199648;67;2606;-22
2023/08/03 10:24:07;;;;;;;;;;;;;;;;;;2199183;67;1771;-22
2023/08/03 10:26:38;;;;;;;;;;;;;;;;;;2198988;59;2285;-22
2023/08/03 10:29:08;;;;;;;;;;;;;;;;;;2199780;66;2053;-22
2023/08/03 10:31:54;;;;;;;;;;;;;;;;;;2200017;67;1870;-22
2023/08/03 10:34:28;;;;;;;;;;;;;;;;;;2200630;67;1987;-22
2023/08/03 10:36:58;;;;;;;;;;;;;;;;;;2200236;59;2677;-22
2023/08/03 10:39:45;;;;;;;;;;;;;;;;;;2200228;67;1717;-22
2023/08/03 10:42:19;;;;;;;;;;;;;;;;;;2197488;59;2757;-22
2023/08/03 10:44:49;;;;;;;;;;;;;;;;;;2199630;59;1494;-22
2023/08/03 10:47:23;;;;;;;;;;;;;;;;;;2200149;66;1966;-22
2023/08/03 10:49:55;;;;;;;;;;;;;;;;;;2198641;59;2031;-22
2023/08/03 10:52:33;;;;;;;;;;;;;;;;;;2199396;59;2101;-22
2023/08/03 10:55:20;;;;;;;;;;;;;;;;;;2199037;59;1945;-22
2023/08/03 10:57:51;;;;;;;;;;;;;;;;;;2199636;67;1925;-22
2023/08/03 11:00:21;;;;;;;;;;;;;;;;;;2199754;59;1991;-22
2023/08/03 11:02:52;;;;;;;;;;;;;;;;;;2199515;67;1650;-22
2023/08/03 11:05:22;;;;;;;;;;;;;;;;;;2199850;59;1667;-22
2023/08/03 11:07:54;;;;;;;;;;;;;;;;;;2199864;67;1881;-22
2023/08/03 11:10:27;;;;;;;;;;;;;;;;;;2200357;67;2426;-22
2023/08/03 11:12:58;;;;;;;;;;;;;;;;;;2196588;59;2737;-22
2023/08/03 11:15:28;;;;;;;;;;;;;;;;;;2198480;67;1954;-22
2023/08/03 11:17:58;;;;;;;;;;;;;;;;;;2200016;59;2074;-22
2023/08/03 11:20:29;;;;;;;;;;;;;;;;;;2201080;59;2486;-22
2023/08/03 11:22:59;;;;;;;;;;;;;;;;;;2199988;66;1876;-22
2023/08/03 11:25:29;;;;;;;;;;;;;;;;;;2199694;59;1761;-22
2023/08/03 11:27:59;;;;;;;;;;;;;;;;;;2199555;59;2276;-22
2023/08/03 11:30:29;;;;;;;;;;;;;;;;;;2200057;60;1828;-22
2023/08/03 11:33:00;;;;;;;;;;;;;;;;;;2199203;59;1993;-22
2023/08/03 11:35:30;;;;;;;;;;;;;;;;;;2201144;59;1644;-22
2023/08/03 11:38:01;;;;;;;;;;;;;;;;;;2199226;67;1910;-22
2023/08/03 11:40:31;;;;;;;;;;;;;;;;;;2200449;67;1202;-22
2023/08/03 11:43:01;;;;;;;;;;;;;;;;;;2198923;67;2672;-22
2023/08/03 11:45:34;;;;;;;;;;;;;;;;;;2200501;59;2533;-22
2023/08/03 11:48:05;;;;;;;;;;;;;;;;;;2199883;67;1634;-22
2023/08/03 11:50:35;;;;;;;;;;;;;;;;;;2200936;59;2530;-22
2023/08/03 11:53:05;;;;;;;;;;;;;;;;;;2201542;59;1932;-22
2023/08/03 11:55:37;;;;;;;;;;;;;;;;;;2200430;67;2084;-22
2023/08/03 11:58:08;;;;;;;;;;;;;;;;;;2200021;66;1921;-22
2023/08/03 12:00:39;;;;;;;;;;;;;;;;;;2199896;59;1686;-22
2023/08/03 12:03:09;;;;;;;;;;;;;;;;;;2199354;59;2657;-22
2023/08/03 12:05:46;;;;;;;;;;;;;;;;;;2197961;59;1914;-22
2023/08/03 12:08:20;;;;;;;;;;;;;;;;;;2198857;67;2424;-22
2023/08/03 12:10:59;;;;;;;;;;;;;;;;;;2199883;59;1837;-22
2023/08/03 12:13:30;;;;;;;;;;;;;;;;;;2200545;59;1994;-22
2023/08/03 12:16:00;;;;;;;;;;;;;;;;;;2199883;66;2758;-22
2023/08/03 12:18:30;;;;;;;;;;;;;;;;;;2200285;67;1799;-22
2023/08/03 12:21:01;;;;;;;;;;;;;;;;;;2200045;59;1787;-22
2023/08/03 12:23:31;;;;;;;;;;;;;;;;;;2200352;67;1757;-22
2023/08/03 12:26:01;;;;;;;;;;;;;;;;;;2200803;59;3607;-22
2023/08/03 12:28:31;;;;;;;;;;;;;;;;;;2199611;66;2047;-24
2023/08/03 12:31:01;;;;;;;;;;;;;;;;;;2198615;67;2936;-24
2023/08/03 12:33:32;;;;;;;;;;;;;;;;;;2200044;59;2688;-24
2023/08/03 12:36:02;;;;;;;;;;;;;;;;;;2199127;59;2278;-24
2023/08/03 12:38:32;;;;;;;;;;;;;;;;;;2199818;59;1739;-24
2023/08/03 12:41:03;;;;;;;;;;;;;;;;;;2199697;67;2277;-24
2023/08/03 12:43:33;;;;;;;;;;;;;;;;;;2198767;67;2641;-24
2023/08/03 12:46:03;;;;;;;;;;;;;;;;;;2199165;59;2149;-24
2023/08/03 12:48:33;;;;;;;;;;;;;;;;;;2199900;66;2017;-24
2023/08/03 12:51:04;;;;;;;;;;;;;;;;;;2199840;59;2567;-24
2023/08/03 12:53:34;;;;;;;;;;;;;;;;;;2198671;59;1938;-24
2023/08/03 12:56:04;;;;;;;;;;;;;;;;;;2199087;59;1825;-24
2023/08/03 12:58:35;;;;;;;;;;;;;;;;;;2199234;59;1476;-24
2023/08/03 13:01:05;;;;;;;;;;;;;;;;;;2198450;59;1655;-24
2023/08/03 13:03:36;;;;;;;;;;;;;;;;;;2199572;59;2236;-24
2023/08/03 13:06:07;;;;;;;;;;;;;;;;;;2198617;67;2795;-24
2023/08/03 13:08:37;;;;;;;;;;;;;;;;;;2200077;66;1780;-24
2023/08/03 13:11:07;;;;;;;;;;;;;;;;;;2199280;59;2299;-24
2023/08/03 13:13:38;;;;;;;;;;;;;;;;;;2199787;59;2296;-24
2023/08/03 13:16:08;;;;;;;;;;;;;;;;;;2198303;67;1890;-24
2023/08/03 13:18:38;;;;;;;;;;;;;;;;;;2199837;59;1940;-24
2023/08/03 13:21:11;;;;;;;;;;;;;;;;;;2199647;59;2312;-24
2023/08/03 13:23:42;;;;;;;;;;;;;;;;;;2199511;66;1611;-24
2023/08/03 13:26:12;;;;;;;;;;;;;;;;;;2198899;59;2024;-24
2023/08/03 13:28:44;;;;;;;;;;;;;;;;;;2199549;66;1775;-24
2023/08/03 13:31:14;;;;;;;;;;;;;;;;;;2199484;59;2487;-24
2023/08/03 13:33:44;;;;;;;;;;;;;;;;;;2199137;59;1978;-24
2023/08/03 13:36:15;;;;;;;;;;;;;;;;;;2198586;59;2403;-24
2023/08/03 13:38:48;;;;;;;;;;;;;;;;;;2199237;67;2581;-24
2023/08/03 13:41:18;;;;;;;;;;;;;;;;;;2199122;67;2460;-24
2023/08/03 13:43:48;;;;;;;;;;;;;;;;;;2199014;60;2866;-24
2023/08/03 13:46:19;;;;;;;;;;;;;;;;;;2198982;59;2251;-24
2023/08/03 13:48:49;;;;;;;;;;;;;;;;;;2199743;67;2712;-24
2023/08/03 13:51:19;;;;;;;;;;;;;;;;;;2200023;59;1796;-24
2023/08/03 13:53:50;;;;;;;;;;;;;;;;;;2198963;59;3119;-24
2023/08/03 13:56:20;;;;;;;;;;;;;;;;;;2199362;59;1764;-24
2023/08/03 13:58:50;;;;;;;;;;;;;;;;;;2198845;67;2651;-24
2023/08/03 14:01:20;;;;;;;;;;;;;;;;;;2199738;59;1911;-24
2023/08/03 14:03:54;;;;;;;;;;;;;;;;;;2199719;59;1778;-24
2023/08/03 14:06:25;;;;;;;;;;;;;;;;;;2199848;67;1864;-24
2023/08/03 14:08:59;;;;;;;;;;;;;;;;;;2197875;67;1912;-24
2023/08/03 14:11:29;;;;;;;;;;;;;;;;;;2200127;59;2265;-24
2023/08/03 14:14:01;;;;;;;;;;;;;;;;;;2198799;67;1942;-24
2023/08/03 14:16:31;;;;;;;;;;;;;;;;;;2199123;67;1868;-24
2023/08/03 14:19:02;;;;;;;;;;;;;;;;;;2204010;54;2020;-21
2023/08/03 14:21:32;;;;;;;;;;;;;;;;;;2195735;59;1611;-22
2023/08/03 14:24:03;;;;;;;;;;;;;;;;;;2196153;67;2165;-22
2023/08/03 14:26:33;;;;;;;;;;;;;;;;;;2196273;59;1826;-22
2023/08/03 14:29:03;;;;;;;;;;;;;;;;;;2194654;67;1828;-22
2023/08/03 14:31:34;;;;;;;;;;;;;;;;;;2193612;59;1469;-22
2023/08/03 14:34:04;;;;;;;;;;;;;;;;;;2194086;59;2040;-22
2023/08/03 14:36:35;;;;;;;;;;;;;;;;;;2193281;59;2007;-22
2023/08/03 14:39:05;;;;;;;;;;;;;;;;;;2195092;67;1876;-22
2023/08/03 14:41:37;;;;;;;;;;;;;;;;;;2196525;67;1953;-21
2023/08/03 14:44:07;;;;;;;;;;;;;;;;;;2192328;67;2693;-22
2023/08/03 14:46:37;;;;;;;;;;;;;;;;;;2193025;59;2929;-22
2023/08/03 14:49:08;;;;;;;;;;;;;;;;;;2193787;67;2576;-22
2023/08/03 14:51:39;;;;;;;;;;;;;;;;;;2194095;59;1743;-22
2023/08/03 14:54:09;;;;;;;;;;;;;;;;;;2193210;59;1940;-22
2023/08/03 14:56:40;;;;;;;;;;;;;;;;;;2195224;59;2016;-22
2023/08/03 14:59:10;;;;;;;;;;;;;;;;;;2196976;67;1734;-22
2023/08/03 15:01:41;;;;;;;;;;;;;;;;;;2194174;59;1648;-22
2023/08/03 15:04:11;;;;;;;;;;;;;;;;;;2192986;59;1999;-22
2023/08/03 15:06:41;;;;;;;;;;;;;;;;;;2194219;67;1621;-22
2023/08/03 15:09:11;;;;;;;;;;;;;;;;;;2193940;67;1789;-22
2023/08/03 15:11:42;;;;;;;;;;;;;;;;;;2193701;67;1638;-22
2023/08/03 15:14:12;;;;;;;;;;;;;;;;;;2193542;67;1999;-22
2023/08/03 15:16:43;;;;;;;;;;;;;;;;;;2194372;67;1519;-22
2023/08/03 15:19:13;;;;;;;;;;;;;;;;;;2193959;59;1498;-22
2023/08/03 15:21:43;;;;;;;;;;;;;;;;;;2193848;67;1753;-22
2023/08/03 15:24:13;;;;;;;;;;;;;;;;;;2194021;67;1419;-22
2023/08/03 15:26:43;;;;;;;;;;;;;;;;;;2194449;67;1161;-22
2023/08/03 15:29:14;;;;;;;;;;;;;;;;;;2194570;67;2027;-22
2023/08/03 15:31:44;;;;;;;;;;;;;;;;;;2196027;59;1351;-22
2023/08/03 15:34:14;;;;;;;;;;;;;;;;;;2193841;59;1940;-22
2023/08/03 15:36:44;;;;;;;;;;;;;;;;;;2194206;67;1474;-22
2023/08/03 15:39:17;;;;;;;;;;;;;;;;;;2193704;67;1286;-22
2023/08/03 15:41:49;;;;;;;;;;;;;;;;;;2193304;67;1589;-22
2023/08/03 15:44:20;;;;;;;;;;;;;;;;;;2193846;59;1546;-22
2023/08/03 15:46:51;;;;;;;;;;;;;;;;;;2193346;59;2753;-22
2023/08/03 15:49:21;;;;;;;;;;;;;;;;;;2193575;59;2868;-22
2023/08/03 15:51:51;;;;;;;;;;;;;;;;;;2194661;59;1757;-22
2023/08/03 15:54:21;;;;;;;;;;;;;;;;;;2193979;59;1928;-22
2023/08/03 15:56:52;;;;;;;;;;;;;;;;;;2194084;59;1252;-22
2023/08/03 15:59:23;;;;;;;;;;;;;;;;;;2194217;67;1579;-22
2023/08/03 16:01:53;;;;;;;;;;;;;;;;;;2192952;59;2210;-22
2023/08/03 16:04:23;;;;;;;;;;;;;;;;;;2194932;59;1595;-22
2023/08/03 16:06:54;;;;;;;;;;;;;;;;;;2193607;67;1475;-22
2023/08/03 16:09:27;;;;;;;;;;;;;;;;;;2194834;67;1133;-22
2023/08/03 16:11:57;;;;;;;;;;;;;;;;;;2194412;59;1641;-22
2023/08/03 16:14:27;;;;;;;;;;;;;;;;;;2195692;67;1945;-22
2023/08/03 16:16:57;;;;;;;;;;;;;;;;;;2192684;59;1594;-22
2023/08/03 16:19:28;;;;;;;;;;;;;;;;;;2193807;59;1582;-22
2023/08/03 16:21:59;;;;;;;;;;;;;;;;;;2196360;67;1699;-22
2023/08/03 16:24:29;;;;;;;;;;;;;;;;;;2192967;67;1231;-22
2023/08/03 16:26:59;;;;;;;;;;;;;;;;;;2193491;60;1211;-22
2023/08/03 16:29:29;;;;;;;;;;;;;;;;;;2193669;59;1287;-22
2023/08/03 16:32:00;;;;;;;;;;;;;;;;;;2193790;59;1390;-22
2023/08/03 16:34:30;;;;;;;;;;;;;;;;;;2193577;67;1940;-22
2023/08/03 16:37:00;;;;;;;;;;;;;;;;;;2193851;67;1304;-22
2023/08/03 16:39:32;;;;;;;;;;;;;;;;;;2194113;67;1232;-22
2023/08/03 16:42:02;;;;;;;;;;;;;;;;;;2193201;67;1529;-22
2023/08/03 16:44:32;;;;;;;;;;;;;;;;;;2193936;59;1429;-22
2023/08/03 16:47:03;;;;;;;;;;;;;;;;;;2193361;67;2712;-22
2023/08/03 16:49:34;;;;;;;;;;;;;;;;;;2193045;59;2598;-21
2023/08/03 16:52:08;;;;;;;;;;;;;;;;;;2194125;59;2357;-22
2023/08/03 16:54:39;;;;;;;;;;;;;;;;;;2193392;59;1904;-22
2023/08/03 16:57:09;;;;;;;;;;;;;;;;;;2193308;59;1891;-21
2023/08/03 16:59:40;;;;;;;;;;;;;;;;;;2193740;59;2030;-22
2023/08/03 17:02:10;;;;;;;;;;;;;;;;;;2192249;59;1802;-22
2023/08/03 17:04:40;;;;;;;;;;;;;;;;;;2193788;67;3183;-22
2023/08/03 17:07:10;;;;;;;;;;;;;;;;;;2191835;67;3316;-21
2023/08/03 17:09:41;;;;;;;;;;;;;;;;;;2193714;67;1278;-22
2023/08/03 17:12:11;;;;;;;;;;;;;;;;;;2191905;59;3630;-22
2023/08/03 17:14:41;;;;;;;;;;;;;;;;;;2193495;59;1996;-22
2023/08/03 17:17:12;;;;;;;;;;;;;;;;;;2193376;59;2378;-22
2023/08/03 17:19:42;;;;;;;;;;;;;;;;;;2192449;59;1659;-22
2023/08/03 17:22:12;;;;;;;;;;;;;;;;;;2192292;67;2356;-22
2023/08/03 17:24:42;;;;;;;;;;;;;;;;;;2193249;67;1450;-21
2023/08/03 17:27:13;;;;;;;;;;;;;;;;;;2196617;59;2008;-22
2023/08/03 17:29:43;;;;;;;;;;;;;;;;;;2193412;67;2742;-21